空港情報

日本の空港の気象及び、管制情報です。
気象情報はより詳細な情報が取得できる「AVIATION WEATER CENTER」 から取得しているため、VATSIMの気象情報と若干のタイムラグが生じることがあります。

VRCのフィールド設定用空港一覧はこちらをご覧ください。

RJCG Sapporo Control

RJCW / Wakkanai
VMC

NO RADAR

RADIO

08/26 2200x45

民間 civil

4000

010@23KT

29.50

RJCW 130300Z 01023KT 4000 -SHRASN BR FEW010 SCT020 BKN030 02/M00 Q0999

RJER / Rishiri

NO RADAR

REMOTE

25/07 1800x45

民間 civil

過去5時間に発表されたMETARがありません。

RJEB / Monbetsu
VMC

NO RADAR

REMOTE

32/14 2000x45

民間 civil

9999

240@18KT

29.44

RJEB 130300Z 24018KT 9999 -SHSN FEW020 BKN030 M00/M06 Q0997

RJCM / Memanbetsu
VMC

NO RADAR

TOWER

36/18 2500x45

民間 civil

9999

290@12G27KT

29.38

RJCM 130300Z 29012G27KT 250V330 9999 FEW020 SCT030 BKN040 02/M08 Q0995

RJEC / Asahikawa
VMC

NO RADAR

TOWER

34/16 2500x60

民間 civil

9999

160@10KT

29.59

RJEC 130300Z 16010KT 9999 -SHSN FEW010 SCT020 BKN035 M03/M06 Q1002

RJCN / Nakashibetsu
VMC

NO RADAR

RADIO

08/26 2000x45

民間 civil

9999

280@16G27KT

29.35

RJCN 130300Z 28016G27KT 240V310 9999 -SHSN FEW010 SCT025 BKN035 01/M07 Q0994

RJCK / Kushiro
VMC

NO RADAR

TOWER

17/35 2500x45

民間 civil

9999

270@12KT

29.41

RJCK 130300Z 27012KT 230V310 9999 FEW030 SCT080 BKN120 M00/M09 Q0996

RJCO / Sapporo
VMC

RJCO_APP

TOWER

14/32 1500x30

共用 dual

9999

290@11G21KT

29.70

RJCO 130129Z 29011G21KT 9999 FEW020 BKN050 00/M09 Q1006 RMK 1CU020 6CU050 A2970

RJCJ / Chitose

RJCC_APP

TOWER

36R/18L 3000x60
36L/18R 2700x45

自衛隊 military

過去5時間に発表されたMETARがありません。

RJCC / NewChitose
VMC

RJCC_APP

TOWER

01L/19R 3000x60
01R/19L 3000x60

民間 civil

9999

320@11KT

29.68

RJCC 130300Z 32011KT 9999 FEW025 BKN050 BKN/// 00/M09 Q1005

RJCB / Obihiro
VMC

NO RADAR

TOWER

35/17 2500x45

民間 civil

9999

310@10G20KT

29.50

RJCB 130300Z 31010G20KT 250V360 9999 FEW040 SCT150 M00/M11 Q0999

RJEO / Okushiri

NO RADAR

REMOTE

12/30 1500x45

民間 civil

過去5時間に発表されたMETARがありません。

RJCH / Hakodate
VMC

RJCH_APP

TOWER

12/30 3000x45

民間 civil

9999

280@15KT

29.73

RJCH 130300Z 28015KT 9999 -SHSN FEW003 SCT007 BKN025 M02/M07 Q1007

RJSA / Aomori
IMC

NO RADAR

TOWER

24/06 3000x60

民間 civil

1000

240@14KT

29.76

RJSA 130319Z 24014KT 1000 R24/0600VP1800U -SHSN FEW001 SCT003 BKN006 M03/M04 Q1008 RMK 1ST001 3ST003 6ST006 A2977

RJSO / Ominato
VMC

RJSM_APP

TOWER

04/22 600x45

自衛隊 military

4900

260@7G20KT

29.76

RJSO 130147Z 26007G20KT 220V300 4900 -SHSN FEW005 BKN012 BKN020 M01/M05 Q1008 REBLSN RMK 1ST005 5ST012 7CU020 A2978

RJSM / Misawa

RJSM_APP

TOWER

10/28 3050x45

共用 dual

過去5時間に発表されたMETARがありません。

RJSH / Hachinohe
VMC

RJSM_APP

TOWER

25/07 2250x45

自衛隊 military

9999

260@16G26KT

29.76

RJSH 130302Z 26016G26KT 9999 FEW020 SCT040 02/M06 Q1008 RMK 1CU020 3CU040 A2977

RJSK / Akita
VMC

NO RADAR

TOWER

10/28 2500x60

民間 civil

8000

280@19G30KT

29.85

RJSK 130300Z 28019G30KT 8000 -SHSN FEW005 SCT012 BKN020 00/M04 Q1011

RJSI / Hanamaki
VMC

NO RADAR

RADIO

20/02 2500x45

民間 civil

6000

150@4KT

29.82

RJSI 130311Z 15004KT 090V180 6000 -SHSN FEW008 SCT010 BKN020 M01/M03 Q1010 RMK 1CU008 4CU010 6CU020 A2984

RJSR / Odate-Noshiro
VMC

NO RADAR

REMOTE

11/29 2000x45

民間 civil

9999

280@12KT

29.82

RJSR 130300Z 28012KT 240V330 9999 VCSH FEW030 SCT040 BKN045 01/M08 Q1010

RJTG Tokyo Control

RJSY / Shonai
VMC

NO RADAR

RADIO

09/27 2000x45

民間 civil

8000

290@17G29KT

29.91

RJSY 130300Z 29017G29KT 8000 -SHSN FEW008 SCT030 BKN040 02/M04 Q1013

RJSC / Yamagata
IMC

NO RADAR

RADIO

01/19 2000x45

民間 civil

1600

240@4KT

29.88

RJSC 130300Z 24004KT 200V270 1600 -SHSN FEW003 SCT008 BKN010 00/M01 Q1012

RJST / Matsushima

RJSS_APP

TOWER

07/25 2071x46
15/33 1500x46

自衛隊 military

過去5時間に発表されたMETARがありません。

RJSS / Sendai
VMC

RJSS_APP

TOWER

27/09 3000x45
12/30 1200x45

民間 civil

9999

280@12KT

29.88

RJSS 130300Z 28012KT 9999 FEW020 SCT030 BKN080 03/M05 Q1012

RJSD / Sado

NO RADAR

REMOTE

10/28 890x25

民間 civil

過去5時間に発表されたMETARがありません。

RJSN / Niigata
VMC

RJSN_APP

TOWER

10/28 2500x45
04/22 1314x45

民間 civil

9999

300@21G31KT

29.97

RJSN 130303Z 30021G31KT 9999 -SHSN FEW010 SCT020 BKN030 04/M03 Q1015 RMK 1CU010 3CU020 5CU030 A2997

RJSF / Fukushima
VMC

NO RADAR

RADIO

01/19 2500x60

民間 civil

9999

290@6KT

29.85

RJSF 130300Z 29006KT 240V020 9999 FEW015 SCT035 BKN080 00/M04 Q1011

RJAH / Ibaraki/Hyakuri
VMC

RJAH_APP

TOWER

03L/21R 2700x45
03R/21L 2700x45

共用 dual

9999

290@14KT

29.85

RJAH 130300Z 29014KT 250V310 9999 FEW030 10/M11 Q1011

RJTT / Tokyo
VMC

RJTT_APP

TOWER

34LR/16RL 3000x60
04/22&05/23 2500x60

民間 civil

9999

070@6KT

29.88

RJTT 130300Z 07006KT 9999 FEW030 09/M07 Q1012 NOSIG RMK 1CU030 A2989 MOD TURB OBS AT 0256Z OVER KAIJI BTN 10000FT AND 12000FT IN CMB BY B738

RJAA / Narita
VMC

RJTT_APP

TOWER

34L/16R 4000x60
34R/16L 2500x60

民間 civil

9999

310@11KT

29.88

RJAA 130300Z 31011KT 9999 FEW030 09/M09 Q1012 NOSIG RMK 1CU030 A2989

RJTL / Shimofusa

RJTT_APP

TOWER

19/01 2250x45

自衛隊 military

過去5時間に発表されたMETARがありません。

RJTE / Tateyama

RJTT_APP

TOWER

09/27 300x45

自衛隊 military

過去5時間に発表されたMETARがありません。

RJTO / Oshima
VMC

NO RADAR

RADIO

03/21 1800x45

民間 civil

9999

230@6KT

29.88

RJTO 130300Z 23006KT 170V290 9999 FEW030 SCT040 10/02 Q1012

RJTK / Kisarazu

NO RADAR

TOWER

02/20 1830x45

自衛隊 military

過去5時間に発表されたMETARがありません。

RJAN / Niijima

NO RADAR

REMOTE

11/29 800x25

自衛隊 military

過去5時間に発表されたMETARがありません。

RJAZ / Kozushima

NO RADAR

REMOTE

11/29 800x25

民間 civil

過去5時間に発表されたMETARがありません。

RJTH / Hachijojima

NO RADAR

RADIO

26/08 2000x45

民間 civil

過去5時間に発表されたMETARがありません。

RJTF / Chofu
VMC

NO RADAR

Flight Service

35/17 800x30

民間 civil

9999

000@3KT

29.88

RJTF 130300Z VRB03KT 9999 FEW030 10/M09 Q1012

RJTQ / Miyake

NO RADAR

REMOTE

02/20 1200x30

民間 civil

過去5時間に発表されたMETARがありません。

RJTC / Tachikawa

NO RADAR

TOWER

01/19 900x45

自衛隊 military

過去5時間に発表されたMETARがありません。

RJTA / Atsugi

NO RADAR

TOWER

01/19 2438x45

自衛隊 military

過去5時間に発表されたMETARがありません。

RJTU / Utsunomiya

RJTY_APP

TOWER

01/19 1700x45

自衛隊 military

過去5時間に発表されたMETARがありません。

RJTJ / Iruma

RJTY_APP

TOWER

17/35 2000x45

自衛隊 military

過去5時間に発表されたMETARがありません。

RJTY / Yokota
VMC

RJTY_APP

TOWER

18/36 3353x60

自衛隊 military

9999

000@0KT

29.92

RJTY 130256Z AUTO 00000KT 10SM CLR 09/M09 A2992 RMK AO2 SLP141 T00851094 57021 FZRANO $

RJAF / Matsumoto
VMC

NO RADAR

RADIO

18/36 2000x45

民間 civil

9999

010@6KT

29.85

RJAF 130300Z 01006KT 320V050 9999 FEW030 SCT050 04/M06 Q1011

RJNS / Shizuoka
VMC

NO RADAR

RADIO

30/12 2500x60

民間 civil

9999

250@19G29KT

29.88

RJNS 130300Z 25019G29KT 210V270 9999 FEW030 08/M04 Q1012

RJNY / Yaizu-Shizuhama
VMC

NO RADAR

TOWER

27/09 1500x45

自衛隊 military

9999

270@15G26KT

29.97

RJNY 130018Z 27015G26KT 9999 FEW025 06/M04 Q1015 RMK 1CU025 A2997

RJNH / Hamamatsu

RJNH_APP

TOWER

09/27 2550x60

自衛隊 military

過去5時間に発表されたMETARがありません。

RJGG / Chubu
VMC

RJGG_APP

TOWER

36/18 3500x60

民間 civil

9999

290@9KT

30.03

RJGG 130300Z 29009KT 250V320 9999 FEW025 BKN045 07/M02 Q1017 BECMG 30020KT

RJNA / Nagoya

RJGG_APP

TOWER

34/16 2740x45

民間 civil

過去5時間に発表されたMETARがありません。

RJNG / Gifu
VMC

RJGG_APP

TOWER

28/10 2710x46

自衛隊 military

9999

280@13KT

30.00

RJNG 130306Z 28013KT 9999 FEW015 BKN050 07/M00 Q1016 RMK 1CU015 5SC050 A3003

RJOE / Akeno
VMC

RJOE_APP

TOWER

13/31 500x30
04/22 500x30

自衛隊 military

9999

310@15G26KT

30.09

RJOE 130106Z 31015G26KT 9999 FEW030 06/M06 Q1019 RMK 1CU030 A3010

RJNK / Komatsu
VMC

RJNK_APP

TOWER

06/24 2700x45

共用 dual

9999

330@14KT

30.06

RJNK 130300Z 33014KT 9999 FEW008 SCT015 BKN030 05/M01 Q1018

RJNW / Noto
IMC

NO RADAR

RADIO

25/07 2000x45

民間 civil

1000

310@7KT

30.00

RJNW 130300Z 31007KT 260V350 1000 R25/1100VP1800U -SHSN FEW000 SCT010 BKN020 00/M01 Q1016

RJNT / Toyama
VMC

NO RADAR

TOWER

20/02 2000x45

民間 civil

3500

180@4KT

30.03

RJNT 130300Z 18004KT 150V210 3500 -SHSN FEW003 SCT005 BKN009 01/01 Q1017

RJNF / Fukui

NO RADAR

REMOTE

18/36 1200x30

民間 civil

過去5時間に発表されたMETARがありません。

RJBD / Nanki-Shirahama
VMC

NO RADAR

RADIO

15/33 2000x45

民間 civil

9999

330@19KT

30.09

RJBD 130300Z 33019KT 9999 FEW025 SCT035 BKN045 06/M03 Q1019

RJOY / Yao
VMC

RJBB_APP

TOWER

27/09 1490x45
13/31 1200x30

民間 civil

9999

250@15KT

30.12

RJOY 130300Z 25015KT 9999 FEW030 SCT040 07/M04 Q1020

RJOO / Osaka
VMC

RJBB_APP

TOWER

32L/14R 3000x60
32R/14L 1830x45

民間 civil

9999

000@4KT

30.09

RJOO 130300Z VRB04KT 9999 FEW025 SCT050 06/M06 Q1019 RMK 1CU025 3SC050 A3011

RJOB / Okayama
VMC

RJBB_APP

TOWER

07/25 3000x45

民間 civil

9999

270@6KT

30.12

RJOB 130300Z 27006KT 240V350 9999 -SHSN FEW025 BKN035 03/M04 Q1020

RJBB / Kansai
VMC

RJBB_APP

TOWER

06R/24L 3500x60
06L/24R 4000x60

民間 civil

9999

290@18KT

30.12

RJBB 130300Z 29018KT 9999 FEW025 SCT040 06/M03 Q1020 TEMPO 30023G33KT

RJBE / Kobe
VMC

RJBB_APP

TOWER

09/27 2500x60

民間 civil

9999

270@20KT

30.12

RJBE 130300Z 27020KT 9999 FEW030 07/M03 Q1020

RJBT / Tajima
VMC

NO RADAR

REMOTE

01/19 1200x30

民間 civil

3000

300@7KT

30.09

RJBT 130306Z 30007KT 190V350 3000 -SHSN FEW000 SCT010 BKN020 02/M01 Q1019 RMK 1ST000 3CU010 5CU020 A3010

RJOR / Tottori
VMC

NO RADAR

RADIO

10/28 2000x45

民間 civil

5000

220@16KT

30.12

RJOR 130300Z 22016KT 5000 -SHSN FEW008 SCT020 FEW025CB BKN030 02/M01 Q1020

RJNO / Oki

NO RADAR

REMOTE

07/25 2000x45

民間 civil

過去5時間に発表されたMETARがありません。

RJOH / Miho
VMC

RJOH_APP

TOWER

25/07 2500x45

共用 dual

9999

260@15KT

30.15

RJOH 130300Z 26015KT 9999 FEW008 SCT030 BKN050 05/M06 Q1021

RJOC / Izumo
VMC

RJOH_APP

RADIO

07/25 2000x45

共用 dual

9999

300@17KT

30.18

RJOC 130300Z 30017KT 9999 -SHSNRA FEW020 SCT030 BKN040 04/M03 Q1022

RJDG Fukuoka Control

RJOT / Takamatsu
VMC

RJBB_APP

TOWER

26/08 2500x60

民間 civil

9999

270@18KT

30.15

RJOT 130300Z 27018KT 9999 VCSH FEW025 SCT045 03/M03 Q1021

RJOK / Kochi
VMC

RJBB_APP

TOWER

32/14 2500x45

民間 civil

9999

000@3KT

30.12

RJOK 130300Z VRB03KT 9999 FEW035 08/M06 Q1020

RJOS / Tokushima
VMC

RJOS_APP

TOWER

29/11 2500x45

共用 dual

9999

310@17G27KT

30.12

RJOS 130317Z 31017G27KT 9999 FEW030 SCT050 06/M06 Q1020 RMK 2CU030 4SC050 A3014

RJOA / Hiroshima
VMC

RJOA_APP

TOWER

10/28 3000x60

民間 civil

9999

300@13KT

30.15

RJOA 130300Z 30013KT 9999 -SHSN FEW020 SCT025 03/M04 Q1021

RJBH / Hiroshimanishi

NO RADAR

Flight Service

04/22 1800x45

民間 civil

過去5時間に発表されたMETARがありません。

RJOI / Iwakuni
VMC

RJOI_APP

TOWER

02/20 2440x60

共用 dual

9999

300@10G17KT

30.22

RJOI 130255Z 30010G17KT 9999 FEW030 SCT045 07/M06 A3022 RMK SLP233 T00721056 58010

RJOM / Matsuyama
VMC

RJOI_APP

TOWER

14/32 2500x45

民間 civil

9999

290@9KT

30.21

RJOM 130300Z 29009KT 260V330 9999 FEW035 SCT050 06/M06 Q1023

RJOZ / Ozuki
VMC

RJFZ_APP

TOWER

35/17 1201x61
12/30 899x46

自衛隊 military

9999

320@18G28KT

30.27

RJOZ 130312Z 32018G28KT 9999 FEW030 BKN045 06/M06 Q1025 RMK 1CU030 6SC045 A3027

RJOF / Hofu
VMC

RJFZ_APP

TOWER

30/12 1180x60
01/19 1480x45

自衛隊 military

9999

260@6KT

30.27

RJOF 122340Z 26006KT 9999 FEW025 SCT040 BKN050 03/M04 Q1025 RMK 1CU025 4CU040 5SC050 A3028

RJDC / Yamaguchi-Ube
VMC

RJFZ_APP

RADIO

07/25 2500x45

民間 civil

9999

300@10KT

30.24

RJDC 130300Z 30010KT 260V010 9999 FEW030 SCT040 06/M05 Q1024

RJFR / Kitakyushu
VMC

RJFZ_APP

TOWER

18/36 2500x60

民間 civil

9999

320@16KT

30.27

RJFR 130300Z 32016KT 9999 BKN040 06/M05 Q1025

RJFZ / Tsuiki

RJFZ_APP

TOWER

25/07 2399x46

自衛隊 military

過去5時間に発表されたMETARがありません。

RJOW / Iwami
VMC

NO RADAR

REMOTE

11/29 2000x45

民間 civil

9999

290@15KT

30.24

RJOW 130300Z 29015KT 9999 FEW030 BKN045 05/M06 Q1024

RJDT / Tsushima
VMC

NO RADAR

REMOTE

32/14 1900x45

民間 civil

9999

330@16KT

30.32

RJDT 130300Z 33016KT 290V010 9999 FEW040 03/M08 Q1027

RJFF / Fukuoka
VMC

RJFF_APP

TOWER

16/34 2800x60

民間 civil

9999

310@12KT

30.30

RJFF 130300Z 31012KT 9999 FEW035 SCT040 06/M06 Q1026 RMK 1CU035 3SC040 A3030

RJFS / Saga
VMC

RJFF_APP

RADIO

29/11 2000x45

民間 civil

9999

310@6KT

30.30

RJFS 130300Z 31006KT 240V350 9999 FEW030 BKN/// 07/M04 Q1026

RJFA / Ashiya

RJFF_APP

TOWER

12/30 1640x46

自衛隊 military

過去5時間に発表されたMETARがありません。

RJDB / Iki

RJFF_APP

REMOTE

20/02 1200x30

民間 civil

過去5時間に発表されたMETARがありません。

RJFO / Oita
VMC

RJFO_APP

TOWER

01/19 3000x45

民間 civil

9999

290@15G25KT

30.21

RJFO 130310Z 29015G25KT 260V330 9999 FEW035 BKN045 07/M04 Q1023 RMK 1CU035 5CU045 A3023

RJFU / Nagasaki
VMC

RJFU_APP

TOWER

32/14 3000x60

民間 civil

9999

360@14KT

30.30

RJFU 130300Z 36014KT 9999 FEW035 BKN/// 08/M06 Q1026

RJDU / Omura

RJFU_APP

TOWER

18/36 1200x30

自衛隊 military

過去5時間に発表されたMETARがありません。

RJFE / Fukue

NO RADAR

RADIO

03/21 2000x45

民間 civil

過去5時間に発表されたMETARがありません。

RJDO / Ojika

NO RADAR

REMOTE

03/21 800x30

民間 civil

過去5時間に発表されたMETARがありません。

RJDK / Kamigoto

NO RADAR

REMOTE

17/35 800x30

民間 civil

過去5時間に発表されたMETARがありません。

RJDA / Amakusa

NO RADAR

Flight Service

31/13 1000x30

民間 civil

過去5時間に発表されたMETARがありません。

RJFT / Kumamoto
VMC

RJFT_APP

TOWER

07/25 3000x45

民間 civil

9999

290@6KT

30.27

RJFT 130300Z 29006KT 250V330 9999 FEW035 BKN/// 05/M06 Q1025

RJFN / Nyutabaru

RJFM_APP

TOWER

28/10 2701x46

自衛隊 military

過去5時間に発表されたMETARがありません。

RJFM / Miyazaki
VMC

RJFM_APP

TOWER

27/09 2500x45

民間 civil

9999

260@7KT

30.18

RJFM 130300Z 26007KT 230V290 9999 FEW030 10/M05 Q1022

RJFK / Kagoshima
VMC

RJFK_APP

TOWER

34/16 3000x45

民間 civil

9999

330@13KT

30.18

RJFK 130300Z 33013KT 9999 FEW030 BKN/// 07/M07 Q1022

RJFY / Kanoya

RJFY_APP

TOWER

26L/08R 2250x45
26R/08L 1200x40

自衛隊 military

過去5時間に発表されたMETARがありません。

RJFG / Tanegashima
VMC

NO RADAR

RADIO

31/13 2000x45

民間 civil

9999

310@18G28KT

30.21

RJFG 130300Z 31018G28KT 9999 FEW025 09/M00 Q1023

RJFC / Yakushima

NO RADAR

REMOTE

14/32 1500x45

民間 civil

過去5時間に発表されたMETARがありません。

RORG Naha Control

ROAH / Naha
VMC

ROAH_APP

TOWER

36/18 3000x45

共用 dual

9999

030@12KT

30.15

ROAH 130300Z 03012KT 350V070 9999 FEW040 BKN060 BKN070 19/09 Q1021 RMK 2SC040 5SC060 6AS070 A3017

RORA / Aguni

ROAH_APP

REMOTE

01/19 800x25

民間 civil

過去5時間に発表されたMETARがありません。

ROKJ / Kumejima

ROAH_APP

REMOTE

03/21 2000x45

民間 civil

過去5時間に発表されたMETARがありません。

RODN / Kadena
VMC

ROAH_APP

TOWER

05L/23R 3688x91
05R/23L 3688x61

自衛隊 military

9999

020@10KT

30.18

RODN 130256Z AUTO 02010KT 10SM BKN048 BKN055 19/10 A3018 RMK AO2 SLP227 T01880098 50006 $

ROTM / Futenma
VMC

ROAH_APP

TOWER

06/24 2740x45

自衛隊 military

9999

020@9KT

30.19

ROTM 130300Z 02009KT 10SM FEW050 BKN060 OVC075 18/09 A3019 RMK AO2 SLP212 STNPR29890 T01830094 53006 $

RORS / Shimojishima
VMC

RORS_APP

TOWER

17/35 3000x60

民間 civil

9999

050@20KT

30.12

RORS 130300Z 05020KT 9999 SCT029 BKN060 21/14 Q1020

ROMY / Miyako
VMC

RORS_APP

TOWER

04/22 2000x45

民間 civil

9999

040@15KT

30.12

ROMY 130300Z 04015KT 9999 BKN028 20/15 Q1020

ROIG / New Ishigaki
VMC

RORS_APP

TOWER

22/04 2000x45

民間 civil

9999

050@21KT

30.12

ROIG 130300Z 05021KT 9999 VCSH BKN025 BKN040 21/16 Q1020

RORT / Tarama

RORS_APP

REMOTE

36/18 1500x45

民間 civil

過去5時間に発表されたMETARがありません。

RJKA / Amami
VMC

NO RADAR

RADIO

03/21 2000x45

民間 civil

9999

350@14G24KT

30.18

RJKA 130300Z 35014G24KT 9999 -SHRA FEW025 BKN040 BKN060 13/08 Q1022

RJKI / Kikai

NO RADAR

REMOTE

07/25 1200x30

民間 civil

過去5時間に発表されたMETARがありません。

RJKN / Tokunoshima

NO RADAR

REMOTE

19/01 2000x45

民間 civil

過去5時間に発表されたMETARがありません。

RJKB / Okierabu

NO RADAR

REMOTE

04/22 1350x45

民間 civil

過去5時間に発表されたMETARがありません。

RORY / Yoron
VMC

NO RADAR

REMOTE

32/14 1320x30

民間 civil

9999

020@12KT

30.18

RORY 130300Z AUTO 02012KT 340V050 9999 FEW042 SCT050 BKN070 19/09 Q1022

RORK / Kitadaito

NO RADAR

REMOTE

03/21 1500x45

民間 civil

過去5時間に発表されたMETARがありません。

ROMD / Minami-daito

NO RADAR

REMOTE

02/20 1500x45

民間 civil

過去5時間に発表されたMETARがありません。

ROYN / Yonaguni
VMC

NO RADAR

REMOTE

26/08 2000x45

民間 civil

9999

050@25KT

30.12

ROYN 130300Z AUTO 05025KT 9999 FEW017 SCT021 BKN025 20/17 Q1020

RORH / Hateruma

NO RADAR

REMOTE

02/20 800x25

民間 civil

過去5時間に発表されたMETARがありません。

ROKR / Kerama

NO RADAR

REMOTE

02/20 800x25

民間 civil

過去5時間に発表されたMETARがありません。